Time;durP1;ratioP1;P1;durP2;ratioP2;P2;SDS_P1;SDS_P2;PMS_P1;PMS_P2;Temp;Humidity;BMP_temperature;BMP_pressure;BME280_temperature;BME280_humidity;BME280_pressure;Samples;Min_cycle;Max_cycle;Signal;HPM_P1;HPM_P2
2022/02/16 00:00:14;;;;;;;;;;;;;;;;;;5036443;28;19918;-80
2022/02/16 00:02:40;;;;;;;;;;;;;;;;;;5036627;28;20409;-76
2022/02/16 00:05:09;;;;;;;;;;;;;;;;;;5036467;28;19925;-75
2022/02/16 00:07:35;;;;;;;;;;;;;;;;;;5036484;28;19917;-81
2022/02/16 00:10:00;;;;;;;;;;;;;;;;;;5036408;28;20313;-75
2022/02/16 00:12:26;;;;;;;;;;;;;;;;;;5036415;28;19921;-75
2022/02/16 00:14:51;;;;;;;;;;;;;;;;;;5036043;28;20389;-76
2022/02/16 00:17:16;;;;;;;;;;;;;;;;;;5036271;28;19921;-76
2022/02/16 00:19:42;;;;;;;;;;;;;;;;;;5036257;28;20389;-76
2022/02/16 00:22:07;;;;;;;;;;;;;;;;;;5036294;28;20262;-77
2022/02/16 00:24:34;;;;;;;;;;;;;;;;;;5036201;28;20008;-76
2022/02/16 00:27:00;;;;;;;;;;;;;;;;;;5036048;28;19917;-79
2022/02/16 00:29:25;;;;;;;;;;;;;;;;;;5036133;28;19921;-77
2022/02/16 00:31:50;;;;;;;;;;;;;;;;;;5036032;28;20297;-78
2022/02/16 00:34:16;;;;;;;;;;;;;;;;;;5036074;28;19917;-82
2022/02/16 00:36:42;;;;;;;;;;;;;;;;;;5035985;28;19924;-82
2022/02/16 00:39:07;;;;;;;;;;;;;;;;;;5035812;28;19925;-79
2022/02/16 00:41:33;;;;;;;;;;;;;;;;;;5034608;28;19921;-75
2022/02/16 00:43:58;;;;;;;;;;;;;;;;;;5035795;28;19921;-81
2022/02/16 00:46:23;;;;;;;;;;;;;;;;;;5035765;28;19929;-82
2022/02/16 00:48:49;;;;;;;;;;;;;;;;;;5035505;28;19917;-79
2022/02/16 00:51:15;;;;;;;;;;;;;;;;;;5035624;28;19944;-76
2022/02/16 00:53:40;;;;;;;;;;;;;;;;;;5035887;28;19917;-76
2022/02/16 00:56:06;;;;;;;;;;;;;;;;;;5035386;28;20391;-79
2022/02/16 00:58:31;;;;;;;;;;;;;;;;;;5050903;28;19971;-76
2022/02/16 01:00:56;;;;;;;;;;;;;;;;;;5035370;28;19924;-82
2022/02/16 01:03:22;;;;;;;;;;;;;;;;;;5035478;28;19956;-75
2022/02/16 01:05:48;;;;;;;;;;;;;;;;;;5035443;28;19917;-78
2022/02/16 01:08:13;;;;;;;;;;;;;;;;;;5035228;28;19983;-77
2022/02/16 01:10:39;;;;;;;;;;;;;;;;;;5035376;28;19971;-75
2022/02/16 01:13:05;;;;;;;;;;;;;;;;;;5035275;28;20532;-75
2022/02/16 01:15:31;;;;;;;;;;;;;;;;;;5050453;28;20332;-79
2022/02/16 01:17:56;;;;;;;;;;;;;;;;;;5035269;28;19921;-81
2022/02/16 01:20:22;;;;;;;;;;;;;;;;;;5035036;28;19917;-75
2022/02/16 01:22:48;;;;;;;;;;;;;;;;;;5035103;28;20362;-76
2022/02/16 01:25:13;;;;;;;;;;;;;;;;;;5035044;28;19918;-78
2022/02/16 01:27:39;;;;;;;;;;;;;;;;;;5035015;28;19917;-77
2022/02/16 01:30:05;;;;;;;;;;;;;;;;;;5035006;28;19928;-76
2022/02/16 01:32:30;;;;;;;;;;;;;;;;;;5035199;28;20257;-76
2022/02/16 01:34:56;;;;;;;;;;;;;;;;;;5034869;28;20040;-76
2022/02/16 01:37:22;;;;;;;;;;;;;;;;;;5034935;28;20063;-77
2022/02/16 01:39:47;;;;;;;;;;;;;;;;;;5034708;28;19982;-78
2022/02/16 01:42:16;;;;;;;;;;;;;;;;;;5033589;28;20066;-77
2022/02/16 01:44:42;;;;;;;;;;;;;;;;;;5034730;28;20071;-82
2022/02/16 01:47:07;;;;;;;;;;;;;;;;;;5033290;28;19968;-82
2022/02/16 01:49:33;;;;;;;;;;;;;;;;;;5050024;28;19921;-79
2022/02/16 01:51:59;;;;;;;;;;;;;;;;;;5034582;28;19921;-76
2022/02/16 01:54:24;;;;;;;;;;;;;;;;;;5033254;28;20004;-82
2022/02/16 01:56:50;;;;;;;;;;;;;;;;;;5049750;28;19923;-79
2022/02/16 01:59:20;;;;;;;;;;;;;;;;;;5034423;28;19921;-75
2022/02/16 02:01:45;;;;;;;;;;;;;;;;;;5034998;28;19921;-75
2022/02/16 02:04:11;;;;;;;;;;;;;;;;;;5034909;28;20348;-82
2022/02/16 02:06:36;;;;;;;;;;;;;;;;;;5033443;28;19945;-82
2022/02/16 02:09:02;;;;;;;;;;;;;;;;;;5035759;28;19921;-75
2022/02/16 02:11:28;;;;;;;;;;;;;;;;;;5036062;28;19952;-81
2022/02/16 02:13:54;;;;;;;;;;;;;;;;;;5034190;28;19960;-76
2022/02/16 02:16:19;;;;;;;;;;;;;;;;;;5032845;28;19925;-75
2022/02/16 02:18:45;;;;;;;;;;;;;;;;;;5034079;28;19928;-78
2022/02/16 02:21:11;;;;;;;;;;;;;;;;;;5033841;28;20016;-82
2022/02/16 02:23:36;;;;;;;;;;;;;;;;;;5034003;28;20004;-75
2022/02/16 02:26:02;;;;;;;;;;;;;;;;;;5033992;28;19952;-75
2022/02/16 02:28:27;;;;;;;;;;;;;;;;;;5033770;28;19932;-80
2022/02/16 02:30:54;;;;;;;;;;;;;;;;;;5033776;28;20364;-81
2022/02/16 02:33:20;;;;;;;;;;;;;;;;;;5033872;28;19936;-75
2022/02/16 02:35:45;;;;;;;;;;;;;;;;;;5033774;28;20457;-80
2022/02/16 02:38:11;;;;;;;;;;;;;;;;;;5033824;28;19928;-81
2022/02/16 02:40:36;;;;;;;;;;;;;;;;;;5033655;28;20492;-82
2022/02/16 02:43:02;;;;;;;;;;;;;;;;;;5033487;28;19925;-76
2022/02/16 02:45:27;;;;;;;;;;;;;;;;;;5033645;28;20297;-75
2022/02/16 02:47:53;;;;;;;;;;;;;;;;;;5033419;28;19921;-77
2022/02/16 02:50:18;;;;;;;;;;;;;;;;;;5033548;28;19963;-82
2022/02/16 02:52:44;;;;;;;;;;;;;;;;;;5048788;28;20028;-79
2022/02/16 02:55:10;;;;;;;;;;;;;;;;;;5033585;28;19925;-80
2022/02/16 02:57:36;;;;;;;;;;;;;;;;;;5033434;28;20007;-76
2022/02/16 03:00:01;;;;;;;;;;;;;;;;;;5033247;28;20000;-75
2022/02/16 03:02:27;;;;;;;;;;;;;;;;;;5033298;28;20313;-75
2022/02/16 03:04:52;;;;;;;;;;;;;;;;;;5033215;28;19960;-75
2022/02/16 03:07:17;;;;;;;;;;;;;;;;;;5033177;28;19921;-83
2022/02/16 03:09:43;;;;;;;;;;;;;;;;;;5033220;28;19921;-77
2022/02/16 03:12:09;;;;;;;;;;;;;;;;;;5032952;28;19917;-81
2022/02/16 03:14:35;;;;;;;;;;;;;;;;;;5048120;28;20004;-77
2022/02/16 03:17:00;;;;;;;;;;;;;;;;;;5033236;28;20346;-76
2022/02/16 03:19:26;;;;;;;;;;;;;;;;;;5033002;28;20003;-77
2022/02/16 03:21:51;;;;;;;;;;;;;;;;;;5032892;28;19924;-82
2022/02/16 03:24:17;;;;;;;;;;;;;;;;;;5033166;28;19917;-82
2022/02/16 03:26:42;;;;;;;;;;;;;;;;;;5032940;28;19924;-75
2022/02/16 03:29:08;;;;;;;;;;;;;;;;;;5032832;28;20381;-74
2022/02/16 03:31:33;;;;;;;;;;;;;;;;;;5032933;28;19917;-75
2022/02/16 03:33:59;;;;;;;;;;;;;;;;;;5032945;28;20425;-82
2022/02/16 03:36:26;;;;;;;;;;;;;;;;;;5032879;28;19929;-75
2022/02/16 03:38:52;;;;;;;;;;;;;;;;;;5032824;28;19924;-79
2022/02/16 03:41:17;;;;;;;;;;;;;;;;;;5032803;28;19917;-80
2022/02/16 03:43:42;;;;;;;;;;;;;;;;;;5032856;28;19924;-78
2022/02/16 03:46:08;;;;;;;;;;;;;;;;;;5032877;28;19917;-76
2022/02/16 03:48:33;;;;;;;;;;;;;;;;;;5032774;28;19921;-76
2022/02/16 03:50:59;;;;;;;;;;;;;;;;;;5032708;28;20377;-79
2022/02/16 03:53:24;;;;;;;;;;;;;;;;;;5032781;28;19932;-82
2022/02/16 03:55:50;;;;;;;;;;;;;;;;;;5032680;28;20281;-75
2022/02/16 03:58:16;;;;;;;;;;;;;;;;;;5032676;28;19921;-76
2022/02/16 04:00:41;;;;;;;;;;;;;;;;;;5031394;28;19928;-81
2022/02/16 04:03:07;;;;;;;;;;;;;;;;;;5032569;28;19928;-80
2022/02/16 04:05:33;;;;;;;;;;;;;;;;;;5032652;28;19917;-77
2022/02/16 04:07:58;;;;;;;;;;;;;;;;;;5032422;28;19917;-75
2022/02/16 04:10:24;;;;;;;;;;;;;;;;;;5032521;28;19943;-75
2022/02/16 04:12:49;;;;;;;;;;;;;;;;;;5032487;28;19971;-80
2022/02/16 04:15:15;;;;;;;;;;;;;;;;;;5032297;28;19992;-83
2022/02/16 04:17:41;;;;;;;;;;;;;;;;;;5032595;28;20378;-83
2022/02/16 04:20:07;;;;;;;;;;;;;;;;;;5032549;28;19968;-81
2022/02/16 04:22:32;;;;;;;;;;;;;;;;;;5032633;28;19972;-81
2022/02/16 04:24:58;;;;;;;;;;;;;;;;;;5031052;28;19921;-77
2022/02/16 04:27:23;;;;;;;;;;;;;;;;;;5032261;28;19917;-77
2022/02/16 04:29:49;;;;;;;;;;;;;;;;;;5032396;28;19960;-78
2022/02/16 04:32:14;;;;;;;;;;;;;;;;;;5034724;28;19920;-82
2022/02/16 04:34:40;;;;;;;;;;;;;;;;;;5035966;28;19921;-81
2022/02/16 04:37:05;;;;;;;;;;;;;;;;;;5035944;28;19932;-82
2022/02/16 04:39:31;;;;;;;;;;;;;;;;;;5035991;28;19913;-77
2022/02/16 04:41:56;;;;;;;;;;;;;;;;;;5035760;28;19917;-75
2022/02/16 04:44:22;;;;;;;;;;;;;;;;;;5035833;28;19920;-76
2022/02/16 04:46:47;;;;;;;;;;;;;;;;;;5035615;28;20392;-76
2022/02/16 04:49:12;;;;;;;;;;;;;;;;;;5035733;28;19924;-82
2022/02/16 04:51:38;;;;;;;;;;;;;;;;;;5035613;28;19913;-76
2022/02/16 04:54:03;;;;;;;;;;;;;;;;;;5035697;28;19953;-84
2022/02/16 04:56:29;;;;;;;;;;;;;;;;;;5035609;28;19917;-83
2022/02/16 04:58:56;;;;;;;;;;;;;;;;;;5035035;28;20196;-81
2022/02/16 05:01:22;;;;;;;;;;;;;;;;;;5035508;28;19952;-83
2022/02/16 05:03:47;;;;;;;;;;;;;;;;;;5035500;28;19921;-82
2022/02/16 05:06:13;;;;;;;;;;;;;;;;;;5035422;28;20374;-75
2022/02/16 05:08:38;;;;;;;;;;;;;;;;;;5035319;28;19967;-82
2022/02/16 05:11:04;;;;;;;;;;;;;;;;;;5035185;28;19917;-79
2022/02/16 05:13:29;;;;;;;;;;;;;;;;;;5035076;28;19928;-83
2022/02/16 05:15:54;;;;;;;;;;;;;;;;;;5035295;28;19929;-75
2022/02/16 05:18:20;;;;;;;;;;;;;;;;;;5035277;28;19921;-83
2022/02/16 05:20:45;;;;;;;;;;;;;;;;;;5035092;28;20008;-79
2022/02/16 05:23:11;;;;;;;;;;;;;;;;;;5035356;28;19917;-78
2022/02/16 05:25:36;;;;;;;;;;;;;;;;;;5035066;28;19917;-76
2022/02/16 05:28:01;;;;;;;;;;;;;;;;;;5035218;28;19921;-77
2022/02/16 05:30:27;;;;;;;;;;;;;;;;;;5034933;28;20416;-83
2022/02/16 05:32:52;;;;;;;;;;;;;;;;;;5050218;28;20023;-81
2022/02/16 05:35:18;;;;;;;;;;;;;;;;;;5034869;28;19927;-80
2022/02/16 05:37:44;;;;;;;;;;;;;;;;;;5034708;28;19920;-80
2022/02/16 05:40:10;;;;;;;;;;;;;;;;;;5034714;28;20305;-83
2022/02/16 05:42:36;;;;;;;;;;;;;;;;;;5032357;28;19991;-76
2022/02/16 05:45:02;;;;;;;;;;;;;;;;;;5034470;28;20412;-77
2022/02/16 05:47:27;;;;;;;;;;;;;;;;;;5034551;28;19948;-79
2022/02/16 05:49:53;;;;;;;;;;;;;;;;;;5034533;28;19917;-76
2022/02/16 05:52:18;;;;;;;;;;;;;;;;;;5034537;28;19921;-81
2022/02/16 05:54:44;;;;;;;;;;;;;;;;;;5034327;28;19967;-80
2022/02/16 05:57:11;;;;;;;;;;;;;;;;;;5034175;28;19967;-83
2022/02/16 05:59:39;;;;;;;;;;;;;;;;;;5034644;28;19917;-83
2022/02/16 06:02:05;;;;;;;;;;;;;;;;;;5034284;28;19921;-83
2022/02/16 06:04:31;;;;;;;;;;;;;;;;;;5034412;28;20140;-77
2022/02/16 06:06:56;;;;;;;;;;;;;;;;;;5049582;28;19924;-82
2022/02/16 06:09:21;;;;;;;;;;;;;;;;;;5034244;28;19918;-77
2022/02/16 06:11:47;;;;;;;;;;;;;;;;;;5034566;28;19940;-81
2022/02/16 06:14:12;;;;;;;;;;;;;;;;;;5034324;28;19936;-81
2022/02/16 06:16:37;;;;;;;;;;;;;;;;;;5035455;28;19998;-80
2022/02/16 06:19:03;;;;;;;;;;;;;;;;;;5036557;28;19919;-81
2022/02/16 06:21:28;;;;;;;;;;;;;;;;;;5037332;28;20027;-80
2022/02/16 06:23:54;;;;;;;;;;;;;;;;;;5032777;28;19918;-81
2022/02/16 06:26:19;;;;;;;;;;;;;;;;;;5033953;28;19913;-77
2022/02/16 06:28:45;;;;;;;;;;;;;;;;;;5033815;28;20012;-82
2022/02/16 06:31:10;;;;;;;;;;;;;;;;;;5033852;28;20377;-84
2022/02/16 06:33:36;;;;;;;;;;;;;;;;;;5033730;28;19917;-78
2022/02/16 06:36:01;;;;;;;;;;;;;;;;;;5033747;28;19923;-78
2022/02/16 06:38:27;;;;;;;;;;;;;;;;;;5033795;28;19921;-83
2022/02/16 06:40:52;;;;;;;;;;;;;;;;;;5033734;28;19929;-83
2022/02/16 06:43:18;;;;;;;;;;;;;;;;;;5033684;28;19921;-80
2022/02/16 06:45:43;;;;;;;;;;;;;;;;;;5033587;28;20301;-78
2022/02/16 06:48:09;;;;;;;;;;;;;;;;;;5033662;28;19917;-79
2022/02/16 06:50:34;;;;;;;;;;;;;;;;;;5033573;28;20345;-77
2022/02/16 06:52:59;;;;;;;;;;;;;;;;;;5033550;28;20015;-82
2022/02/16 06:55:25;;;;;;;;;;;;;;;;;;5033377;28;19921;-84
2022/02/16 06:57:50;;;;;;;;;;;;;;;;;;5033374;28;19917;-80
2022/02/16 07:00:16;;;;;;;;;;;;;;;;;;5033387;28;19955;-77
2022/02/16 07:02:43;;;;;;;;;;;;;;;;;;5033375;28;19920;-82
2022/02/16 07:05:08;;;;;;;;;;;;;;;;;;5033167;28;19927;-76
2022/02/16 07:07:34;;;;;;;;;;;;;;;;;;5033165;28;20020;-80
2022/02/16 07:09:59;;;;;;;;;;;;;;;;;;5033212;28;19921;-80
2022/02/16 07:12:24;;;;;;;;;;;;;;;;;;5031941;28;20091;-81
2022/02/16 07:14:54;;;;;;;;;;;;;;;;;;5032849;28;19928;-81
2022/02/16 07:17:19;;;;;;;;;;;;;;;;;;5033123;28;19918;-77
2022/02/16 07:19:45;;;;;;;;;;;;;;;;;;5033091;28;19925;-80
2022/02/16 07:22:10;;;;;;;;;;;;;;;;;;5048529;28;20016;-81
2022/02/16 07:24:35;;;;;;;;;;;;;;;;;;5033227;28;19978;-83
2022/02/16 07:27:02;;;;;;;;;;;;;;;;;;5032957;28;19917;-78
2022/02/16 07:29:28;;;;;;;;;;;;;;;;;;5033094;28;19939;-82
2022/02/16 07:31:54;;;;;;;;;;;;;;;;;;5033062;28;19917;-81
2022/02/16 07:34:19;;;;;;;;;;;;;;;;;;5032927;28;20296;-79
2022/02/16 07:36:44;;;;;;;;;;;;;;;;;;5032942;28;20148;-83
2022/02/16 07:39:10;;;;;;;;;;;;;;;;;;5032896;28;19917;-85
2022/02/16 07:41:35;;;;;;;;;;;;;;;;;;5032838;28;19928;-83
2022/02/16 07:44:01;;;;;;;;;;;;;;;;;;5032754;28;19932;-85
2022/02/16 07:46:26;;;;;;;;;;;;;;;;;;5032827;28;19921;-85
2022/02/16 07:48:51;;;;;;;;;;;;;;;;;;5032692;28;19921;-83
2022/02/16 07:51:17;;;;;;;;;;;;;;;;;;5032864;28;19976;-84
2022/02/16 07:53:43;;;;;;;;;;;;;;;;;;5032791;28;19943;-78
2022/02/16 07:56:08;;;;;;;;;;;;;;;;;;5033007;28;19917;-84
2022/02/16 07:58:33;;;;;;;;;;;;;;;;;;5032809;28;19987;-83
2022/02/16 08:00:59;;;;;;;;;;;;;;;;;;5032637;28;20388;-78
2022/02/16 08:03:24;;;;;;;;;;;;;;;;;;5032648;28;19948;-83
2022/02/16 08:05:50;;;;;;;;;;;;;;;;;;5032924;28;19956;-81
2022/02/16 08:08:15;;;;;;;;;;;;;;;;;;5036529;28;19921;-78
2022/02/16 08:10:41;;;;;;;;;;;;;;;;;;5036649;28;19918;-85
2022/02/16 08:13:06;;;;;;;;;;;;;;;;;;5036402;28;20071;-78
2022/02/16 08:15:32;;;;;;;;;;;;;;;;;;5036314;28;19928;-83
2022/02/16 08:17:58;;;;;;;;;;;;;;;;;;5036400;28;20294;-81
2022/02/16 08:20:24;;;;;;;;;;;;;;;;;;5035016;28;19917;-82
2022/02/16 08:22:49;;;;;;;;;;;;;;;;;;5034793;28;20304;-82
2022/02/16 08:25:15;;;;;;;;;;;;;;;;;;5035020;28;20163;-84
2022/02/16 08:27:43;;;;;;;;;;;;;;;;;;5037223;28;20362;-83
2022/02/16 08:30:10;;;;;;;;;;;;;;;;;;5037306;28;19917;-87
2022/02/16 08:32:36;;;;;;;;;;;;;;;;;;5036084;28;19921;-80
2022/02/16 08:35:02;;;;;;;;;;;;;;;;;;5035900;28;19917;-80
2022/02/16 08:37:28;;;;;;;;;;;;;;;;;;5051349;28;19924;-77
2022/02/16 08:39:53;;;;;;;;;;;;;;;;;;5036024;28;19917;-87
2022/02/16 08:42:19;;;;;;;;;;;;;;;;;;5035970;28;19924;-85
2022/02/16 08:44:47;;;;;;;;;;;;;;;;;;5054586;28;20340;-92
2022/02/16 08:47:13;;;;;;;;;;;;;;;;;;5054767;28;19917;-83
2022/02/16 08:49:43;;;;;;;;;;;;;;;;;;5056012;28;19924;-84
2022/02/16 08:52:09;;;;;;;;;;;;;;;;;;5054574;28;19917;-83
2022/02/16 08:54:34;;;;;;;;;;;;;;;;;;5055715;28;19917;-82
2022/02/16 08:57:00;;;;;;;;;;;;;;;;;;5054203;28;19917;-85
2022/02/16 08:59:25;;;;;;;;;;;;;;;;;;5055623;28;19971;-85
2022/02/16 09:01:51;;;;;;;;;;;;;;;;;;5055492;28;19923;-83
2022/02/16 09:04:17;;;;;;;;;;;;;;;;;;5055369;28;20028;-83
2022/02/16 09:07:27;;;;;;;;;;;;;;;;;;5055485;28;20319;-83
2022/02/16 09:09:28;;;;;;;;;;;;;;;;;;5055246;28;19923;-83
2022/02/16 09:11:53;;;;;;;;;;;;;;;;;;5055355;28;20320;-84
2022/02/16 09:14:19;;;;;;;;;;;;;;;;;;5055235;28;19974;-82
2022/02/16 09:16:44;;;;;;;;;;;;;;;;;;5055126;28;19971;-83
2022/02/16 09:19:10;;;;;;;;;;;;;;;;;;5055050;28;19916;-79
2022/02/16 09:21:35;;;;;;;;;;;;;;;;;;5055031;28;19920;-77
2022/02/16 09:24:00;;;;;;;;;;;;;;;;;;5055056;28;19948;-84
2022/02/16 09:26:28;;;;;;;;;;;;;;;;;;5055074;28;20015;-78
2022/02/16 09:28:54;;;;;;;;;;;;;;;;;;5054870;28;19921;-84
2022/02/16 09:31:19;;;;;;;;;;;;;;;;;;5054975;28;20012;-78
2022/02/16 09:33:45;;;;;;;;;;;;;;;;;;5054908;28;20007;-77
2022/02/16 09:36:10;;;;;;;;;;;;;;;;;;5053597;28;19947;-82
2022/02/16 09:38:36;;;;;;;;;;;;;;;;;;5054791;28;19917;-82
2022/02/16 09:41:06;;;;;;;;;;;;;;;;;;5054675;28;19917;-83
2022/02/16 09:43:31;;;;;;;;;;;;;;;;;;5054831;28;19916;-84
2022/02/16 09:45:58;;;;;;;;;;;;;;;;;;5054534;28;19923;-77
2022/02/16 09:48:24;;;;;;;;;;;;;;;;;;5054528;28;19916;-77
2022/02/16 09:50:50;;;;;;;;;;;;;;;;;;5054768;28;20010;-84
2022/02/16 09:53:15;;;;;;;;;;;;;;;;;;5054567;28;19928;-82
2022/02/16 09:55:41;;;;;;;;;;;;;;;;;;5054378;28;19917;-77
2022/02/16 09:58:06;;;;;;;;;;;;;;;;;;5054372;28;19971;-85
2022/02/16 10:00:31;;;;;;;;;;;;;;;;;;5054377;28;20411;-84
2022/02/16 10:03:08;;;;;;;;;;;;;;;;;;5054249;28;19916;-82
2022/02/16 10:05:34;;;;;;;;;;;;;;;;;;5054294;28;19917;-83
2022/02/16 10:07:59;;;;;;;;;;;;;;;;;;5054433;28;19917;-84
2022/02/16 10:10:27;;;;;;;;;;;;;;;;;;5054930;28;19982;-84
2022/02/16 10:12:53;;;;;;;;;;;;;;;;;;5054683;28;19928;-77
2022/02/16 10:15:23;;;;;;;;;;;;;;;;;;5059536;28;20008;-84
2022/02/16 10:17:49;;;;;;;;;;;;;;;;;;5057733;28;19999;-81
2022/02/16 10:20:18;;;;;;;;;;;;;;;;;;5054071;28;20016;-81
2022/02/16 10:22:49;;;;;;;;;;;;;;;;;;5053945;28;19963;-75
2022/02/16 10:25:14;;;;;;;;;;;;;;;;;;5053951;28;20277;-81
2022/02/16 10:27:40;;;;;;;;;;;;;;;;;;5053710;28;19917;-81
2022/02/16 10:30:14;;;;;;;;;;;;;;;;;;5053284;28;20324;-77
2022/02/16 10:32:40;;;;;;;;;;;;;;;;;;5053784;28;19921;-84
2022/02/16 10:35:05;;;;;;;;;;;;;;;;;;5054050;28;20397;-80
2022/02/16 10:37:38;;;;;;;;;;;;;;;;;;5053635;28;19960;-81
2022/02/16 10:40:10;;;;;;;;;;;;;;;;;;5053675;28;19928;-81
2022/02/16 10:42:37;;;;;;;;;;;;;;;;;;5053477;28;19917;-82
2022/02/16 10:45:06;;;;;;;;;;;;;;;;;;5053343;28;20015;-84
2022/02/16 10:47:49;;;;;;;;;;;;;;;;;;5053410;28;19917;-84
2022/02/16 10:50:15;;;;;;;;;;;;;;;;;;5053894;28;20293;-83
2022/02/16 10:52:48;;;;;;;;;;;;;;;;;;5053337;28;19920;-77
2022/02/16 10:55:13;;;;;;;;;;;;;;;;;;5053449;28;20304;-83
2022/02/16 10:57:39;;;;;;;;;;;;;;;;;;5053411;28;19916;-80
2022/02/16 11:00:05;;;;;;;;;;;;;;;;;;5053321;28;20372;-81
2022/02/16 11:02:32;;;;;;;;;;;;;;;;;;5053340;28;19970;-79
2022/02/16 11:04:57;;;;;;;;;;;;;;;;;;5052817;28;19916;-83
2022/02/16 11:07:23;;;;;;;;;;;;;;;;;;5053130;28;19916;-77
2022/02/16 11:09:49;;;;;;;;;;;;;;;;;;5053164;28;19917;-76
2022/02/16 11:12:16;;;;;;;;;;;;;;;;;;5053405;28;20012;-83
2022/02/16 11:14:41;;;;;;;;;;;;;;;;;;5052860;28;19921;-78
2022/02/16 11:17:09;;;;;;;;;;;;;;;;;;5052963;28;19921;-77
2022/02/16 11:19:35;;;;;;;;;;;;;;;;;;5053032;28;20270;-82
2022/02/16 11:22:01;;;;;;;;;;;;;;;;;;5053035;28;19927;-83
2022/02/16 11:24:30;;;;;;;;;;;;;;;;;;5052804;28;19921;-83
2022/02/16 11:26:56;;;;;;;;;;;;;;;;;;5052810;28;19971;-84
2022/02/16 11:29:25;;;;;;;;;;;;;;;;;;5052881;28;20329;-78
2022/02/16 11:31:50;;;;;;;;;;;;;;;;;;5052934;28;19962;-76
2022/02/16 11:34:18;;;;;;;;;;;;;;;;;;5052842;28;20331;-83
2022/02/16 11:36:46;;;;;;;;;;;;;;;;;;5052815;28;19962;-77
2022/02/16 11:39:32;;;;;;;;;;;;;;;;;;5052744;28;20332;-80
2022/02/16 11:41:57;;;;;;;;;;;;;;;;;;5054994;28;19922;-83
2022/02/16 11:44:23;;;;;;;;;;;;;;;;;;5057074;28;20292;-83
2022/02/16 11:46:54;;;;;;;;;;;;;;;;;;5056714;28;19917;-77
2022/02/16 11:49:25;;;;;;;;;;;;;;;;;;5056973;28;19920;-79
2022/02/16 11:51:51;;;;;;;;;;;;;;;;;;5056724;28;19923;-79
2022/02/16 11:54:35;;;;;;;;;;;;;;;;;;5055472;28;19917;-80
2022/02/16 11:57:20;;;;;;;;;;;;;;;;;;5055361;28;19921;-80
2022/02/16 11:59:56;;;;;;;;;;;;;;;;;;5056514;28;19928;-78
2022/02/16 12:02:21;;;;;;;;;;;;;;;;;;5056658;28;19917;-79
2022/02/16 12:04:57;;;;;;;;;;;;;;;;;;5056436;28;19940;-78
2022/02/16 12:07:23;;;;;;;;;;;;;;;;;;5056481;28;20015;-85
2022/02/16 12:10:07;;;;;;;;;;;;;;;;;;5056592;28;19928;-76
2022/02/16 12:12:33;;;;;;;;;;;;;;;;;;5056513;28;19962;-79
2022/02/16 12:14:58;;;;;;;;;;;;;;;;;;5056139;28;20015;-85
2022/02/16 12:17:24;;;;;;;;;;;;;;;;;;5056424;28;20440;-85
2022/02/16 12:19:49;;;;;;;;;;;;;;;;;;5056333;28;19916;-77
2022/02/16 12:22:20;;;;;;;;;;;;;;;;;;5056257;28;19920;-83
2022/02/16 12:24:45;;;;;;;;;;;;;;;;;;5056226;28;19920;-78
2022/02/16 12:27:13;;;;;;;;;;;;;;;;;;5055742;28;19966;-82
2022/02/16 12:29:39;;;;;;;;;;;;;;;;;;5056244;28;19917;-78
2022/02/16 12:32:05;;;;;;;;;;;;;;;;;;5056195;28;19963;-84
2022/02/16 12:34:32;;;;;;;;;;;;;;;;;;5057486;28;20448;-85
2022/02/16 12:36:57;;;;;;;;;;;;;;;;;;5056698;28;19948;-77
2022/02/16 12:39:23;;;;;;;;;;;;;;;;;;5056826;28;19913;-85
2022/02/16 12:41:49;;;;;;;;;;;;;;;;;;5054515;28;19916;-85
2022/02/16 12:44:18;;;;;;;;;;;;;;;;;;5055741;28;19958;-80
2022/02/16 12:46:45;;;;;;;;;;;;;;;;;;5055469;28;20370;-80
2022/02/16 12:49:29;;;;;;;;;;;;;;;;;;5055645;28;19928;-83
2022/02/16 12:51:56;;;;;;;;;;;;;;;;;;5055205;28;19917;-86
2022/02/16 12:54:22;;;;;;;;;;;;;;;;;;5055753;28;20393;-76
2022/02/16 12:56:49;;;;;;;;;;;;;;;;;;5055684;28;19921;-86
2022/02/16 12:59:16;;;;;;;;;;;;;;;;;;5055602;28;19924;-80
2022/02/16 13:01:42;;;;;;;;;;;;;;;;;;5055563;28;19916;-78
2022/02/16 13:04:14;;;;;;;;;;;;;;;;;;5045828;28;19927;-84
2022/02/16 13:06:43;;;;;;;;;;;;;;;;;;5045806;28;19932;-77
2022/02/16 13:09:10;;;;;;;;;;;;;;;;;;5046247;28;19944;-78
2022/02/16 13:11:42;;;;;;;;;;;;;;;;;;5043808;28;20004;-78
2022/02/16 13:14:08;;;;;;;;;;;;;;;;;;5041047;28;19936;-77
2022/02/16 13:16:34;;;;;;;;;;;;;;;;;;5047269;28;19978;-83
2022/02/16 13:19:02;;;;;;;;;;;;;;;;;;5044424;28;19960;-81
2022/02/16 13:21:28;;;;;;;;;;;;;;;;;;5044127;28;19921;-88
2022/02/16 13:24:01;;;;;;;;;;;;;;;;;;5042657;28;19924;-84
2022/02/16 13:26:35;;;;;;;;;;;;;;;;;;5041515;28;19931;-78
2022/02/16 13:29:01;;;;;;;;;;;;;;;;;;5043628;28;19942;-78
2022/02/16 13:31:28;;;;;;;;;;;;;;;;;;5047555;28;20385;-80
2022/02/16 13:33:57;;;;;;;;;;;;;;;;;;5044593;28;20415;-78
2022/02/16 13:36:26;;;;;;;;;;;;;;;;;;5049944;28;19936;-77
2022/02/16 13:39:09;;;;;;;;;;;;;;;;;;5045637;28;19928;-78
2022/02/16 13:41:36;;;;;;;;;;;;;;;;;;5042015;28;19991;-86
2022/02/16 13:44:02;;;;;;;;;;;;;;;;;;5046064;28;19964;-86
2022/02/16 13:46:46;;;;;;;;;;;;;;;;;;5040436;28;20433;-84
2022/02/16 13:49:16;;;;;;;;;;;;;;;;;;5043196;28;19932;-86
2022/02/16 13:52:01;;;;;;;;;;;;;;;;;;5054603;28;19921;-85
2022/02/16 13:54:30;;;;;;;;;;;;;;;;;;5054600;28;19924;-79
2022/02/16 13:56:57;;;;;;;;;;;;;;;;;;5054434;28;20419;-79
2022/02/16 13:59:23;;;;;;;;;;;;;;;;;;5054458;28;19917;-81
2022/02/16 14:02:03;;;;;;;;;;;;;;;;;;5054420;28;19916;-80
2022/02/16 14:04:33;;;;;;;;;;;;;;;;;;5039127;28;20263;-78
2022/02/16 14:06:59;;;;;;;;;;;;;;;;;;5051312;28;19964;-84
2022/02/16 14:09:24;;;;;;;;;;;;;;;;;;5038476;28;20007;-83
2022/02/16 14:11:50;;;;;;;;;;;;;;;;;;5054495;28;20341;-86
2022/02/16 14:14:15;;;;;;;;;;;;;;;;;;5053233;28;19924;-86
2022/02/16 14:16:41;;;;;;;;;;;;;;;;;;5057064;28;19952;-80
2022/02/16 14:19:24;;;;;;;;;;;;;;;;;;5066248;28;19900;-82
2022/02/16 14:21:54;;;;;;;;;;;;;;;;;;5057808;28;19972;-85
2022/02/16 14:24:23;;;;;;;;;;;;;;;;;;5034136;28;19936;-85
2022/02/16 14:26:49;;;;;;;;;;;;;;;;;;5035288;28;19928;-77
2022/02/16 14:29:15;;;;;;;;;;;;;;;;;;5047868;28;20305;-86
2022/02/16 14:31:40;;;;;;;;;;;;;;;;;;5046096;28;19920;-82
2022/02/16 14:34:06;;;;;;;;;;;;;;;;;;5040238;28;20258;-81
2022/02/16 14:36:31;;;;;;;;;;;;;;;;;;5048620;28;20022;-86
2022/02/16 14:38:57;;;;;;;;;;;;;;;;;;5046974;28;19925;-81
2022/02/16 14:41:22;;;;;;;;;;;;;;;;;;5049226;28;19920;-78
2022/02/16 14:43:47;;;;;;;;;;;;;;;;;;5053688;28;19924;-83
2022/02/16 14:46:13;;;;;;;;;;;;;;;;;;5051559;28;19944;-80
2022/02/16 14:48:38;;;;;;;;;;;;;;;;;;5040715;28;19940;-84
2022/02/16 14:51:04;;;;;;;;;;;;;;;;;;5033723;28;19971;-78
2022/02/16 14:53:29;;;;;;;;;;;;;;;;;;5036441;28;19921;-77
2022/02/16 14:55:56;;;;;;;;;;;;;;;;;;5044826;28;20152;-84
2022/02/16 14:58:21;;;;;;;;;;;;;;;;;;5046944;28;19921;-82
2022/02/16 15:00:46;;;;;;;;;;;;;;;;;;5046840;28;20422;-85
2022/02/16 15:03:12;;;;;;;;;;;;;;;;;;5040313;28;19928;-78
2022/02/16 15:05:38;;;;;;;;;;;;;;;;;;5043350;28;19917;-83
2022/02/16 15:08:03;;;;;;;;;;;;;;;;;;5053014;28;19970;-78
2022/02/16 15:10:30;;;;;;;;;;;;;;;;;;5053230;28;19956;-84
2022/02/16 15:12:56;;;;;;;;;;;;;;;;;;5049262;28;19917;-80
2022/02/16 15:15:21;;;;;;;;;;;;;;;;;;5038311;28;19929;-85
2022/02/16 15:17:47;;;;;;;;;;;;;;;;;;5038449;28;19929;-85
2022/02/16 15:20:12;;;;;;;;;;;;;;;;;;5043536;28;20015;-81
2022/02/16 15:22:38;;;;;;;;;;;;;;;;;;5033012;28;20015;-84
2022/02/16 15:25:03;;;;;;;;;;;;;;;;;;5032947;28;19921;-79
2022/02/16 15:27:30;;;;;;;;;;;;;;;;;;5032605;28;19939;-77
2022/02/16 15:29:55;;;;;;;;;;;;;;;;;;5032990;28;19921;-83
2022/02/16 15:32:21;;;;;;;;;;;;;;;;;;5033129;28;19939;-79
2022/02/16 15:34:46;;;;;;;;;;;;;;;;;;5032817;28;19917;-76
2022/02/16 15:37:12;;;;;;;;;;;;;;;;;;5032958;28;19917;-78
2022/02/16 15:39:38;;;;;;;;;;;;;;;;;;5032669;28;20035;-82
2022/02/16 15:42:03;;;;;;;;;;;;;;;;;;5032779;28;19921;-79
2022/02/16 15:44:29;;;;;;;;;;;;;;;;;;5032710;28;19982;-86
2022/02/16 15:46:54;;;;;;;;;;;;;;;;;;5032428;28;19918;-78
2022/02/16 15:49:20;;;;;;;;;;;;;;;;;;5032833;28;19917;-82
2022/02/16 15:51:45;;;;;;;;;;;;;;;;;;5031569;28;19925;-84
2022/02/16 15:54:11;;;;;;;;;;;;;;;;;;5032883;28;20373;-84
2022/02/16 15:56:36;;;;;;;;;;;;;;;;;;5032736;28;20400;-79
2022/02/16 15:59:01;;;;;;;;;;;;;;;;;;5032637;28;19924;-84
2022/02/16 16:01:27;;;;;;;;;;;;;;;;;;5032626;28;19918;-80
2022/02/16 16:03:52;;;;;;;;;;;;;;;;;;5032597;28;20349;-75
2022/02/16 16:06:18;;;;;;;;;;;;;;;;;;5032275;28;20282;-83
2022/02/16 16:08:44;;;;;;;;;;;;;;;;;;5032476;28;20448;-86
2022/02/16 16:11:09;;;;;;;;;;;;;;;;;;5032535;28;20035;-80
2022/02/16 16:13:36;;;;;;;;;;;;;;;;;;5032471;28;20352;-74
2022/02/16 16:16:04;;;;;;;;;;;;;;;;;;5032685;28;19963;-75
2022/02/16 16:18:30;;;;;;;;;;;;;;;;;;5032436;28;20417;-78
2022/02/16 16:20:55;;;;;;;;;;;;;;;;;;5032490;28;19967;-73
2022/02/16 16:23:21;;;;;;;;;;;;;;;;;;5031161;28;19987;-82
2022/02/16 16:25:47;;;;;;;;;;;;;;;;;;5032311;28;19928;-77
2022/02/16 16:28:13;;;;;;;;;;;;;;;;;;5034506;28;19917;-81
2022/02/16 16:30:39;;;;;;;;;;;;;;;;;;5036298;28;19917;-81
2022/02/16 16:33:05;;;;;;;;;;;;;;;;;;5036124;28;20373;-80
2022/02/16 16:35:30;;;;;;;;;;;;;;;;;;5035955;28;19924;-81
2022/02/16 16:37:56;;;;;;;;;;;;;;;;;;5036026;28;20289;-81
2022/02/16 16:40:21;;;;;;;;;;;;;;;;;;5036106;28;20506;-79